Latest Weather Observations for Roseworthy

IDS60901

Issued at 2:31 pm CST Thursday 21 September 2017 (issued every 10 minutes, with the page automatically refreshed every 10 minutes)

About weather observations | Map of Adelaide area stations | Latest observations for Adelaide area | Other Formats
Station Details ID: 023122 Name: ROSEWORTHY AWS Lat: -34.51 Lon: 138.68 Height: 65.0 m
Data from the previous 72 hours. | See also: Recent months at Roseworthy
Date/Time
CST
Temp
°C
App
Temp
°C
Dew
Point
°C
Rel
Hum
%
Delta-T
°C
Wind Press
QNH
hPa
Press
MSL
hPa
Rain since
9am
mm
Dir  Spd
km/h
Gust
km/h
Spd
kts
Gust
kts
21/02:00pm 20.1 18.5 13.8 67 3.6 SW 15 24 8 13 1009.6 1009.6 0.0
21/01:30pm 20.5 18.4 13.5 64 4.0 WSW 17 24 9 13 1009.7 1009.7 0.0
21/01:00pm 20.9 18.5 12.6 59 4.7 W 17 26 9 14 1009.7 1009.7 0.0
21/12:30pm 20.9 18.1 11.3 54 5.3 WSW 17 24 9 13 1009.9 1009.9 0.0
21/12:00pm 20.5 16.7 9.7 50 5.8 WNW 20 28 11 15 1010.1 1010.1 0.0
21/11:30am 20.4 16.4 9.0 48 6.0 WNW 20 28 11 15 1010.5 1010.5 0.0
21/11:00am 19.9 16.8 8.9 49 5.8 WNW 15 28 8 15 1010.6 1010.6 0.0
21/10:30am 19.4 16.9 11.2 59 4.5 W 15 20 8 11 1010.7 1010.7 0.0
21/10:00am 18.4 15.7 10.5 60 4.3 W 15 20 8 11 1011.1 1011.1 0.0
21/09:30am 17.5 14.4 8.9 57 4.5 WNW 15 17 8 9 1011.1 1011.1 0.0
21/09:00am 16.9 12.9 6.7 51 5.1 WNW 17 22 9 12 1011.2 1011.2 0.2
21/08:30am 15.1 11.3 5.9 54 4.4 W 15 20 8 11 1011.2 1011.2 0.2
21/08:00am 14.2 9.5 5.0 54 4.3 N 19 24 10 13 1010.5 1010.5 0.2
21/07:30am 11.8 6.8 3.6 57 3.7 N 19 24 10 13 1010.5 1010.5 0.2
21/07:00am 10.2 4.8 2.3 58 3.4 N 20 24 11 13 1010.3 1010.3 0.2
21/06:30am 9.3 3.9 1.5 58 3.2 N 19 20 10 11 1010.3 1010.3 0.2
21/06:00am 8.4 3.4 1.1 60 3.0 N 17 19 9 10 1010.3 1010.3 0.2
21/05:30am 7.2 5.1 1.5 67 2.3 NW 2 7 1 4 1010.1 1010.1 0.2
21/05:00am 8.6 5.0 2.8 67 2.5 SW 11 15 6 8 1009.7 1009.7 0.2
21/04:30am 8.7 5.1 3.1 68 2.4 SSW 11 17 6 9 1009.1 1009.1 0.2
21/04:00am 11.1 7.2 3.4 59 3.4 N 13 15 7 8 1008.0 1008.0 0.2
21/03:30am 9.3 5.9 3.9 69 2.4 ENE 11 13 6 7 1008.0 1008.0 0.2
21/03:00am 10.6 8.1 3.9 63 3.0 SE 6 9 3 5 1008.3 1008.3 0.2
21/02:30am 11.8 7.8 2.8 54 3.9 NE 13 19 7 10 1008.1 1008.1 0.2
21/02:00am 11.7 6.7 1.6 50 4.3 NE 17 20 9 11 1008.5 1008.5 0.2
21/01:30am 12.4 7.1 1.7 48 4.6 NE 19 24 10 13 1009.0 1009.0 0.2
21/01:00am 13.1 7.4 0.8 43 5.2 NNE 20 28 11 15 1009.4 1009.4 0.2
21/12:30am 13.8 7.7 0.5 40 5.6 NNE 22 28 12 15 1009.4 1009.4 0.2
21/12:00am 13.5 7.5 1.2 43 5.3 NNE 22 28 12 15 1010.0 1010.0 0.2
 
Date/Time
CST
Temp
°C
App
Temp
°C
Dew
Point
°C
Rel
Hum
%
Delta-T
°C
Wind Press
QNH
hPa
Press
MSL
hPa
Rain since
9am
mm
Dir  Spd
km/h
Gust
km/h
Spd
kts
Gust
kts
20/11:30pm 13.1 7.2 1.8 46 4.9 NNE 22 28 12 15 1010.1 1010.1 0.2
20/11:00pm 13.3 7.4 1.9 46 5.0 NNE 22 28 12 15 1010.5 1010.5 0.2
20/10:30pm 13.2 7.5 3.0 50 4.5 NNE 22 26 12 14 1010.8 1010.8 0.2
20/10:00pm 9.4 4.6 4.8 73 2.1 NE 19 22 10 12 1011.3 1011.3 0.2
20/09:30pm 9.5 4.6 4.9 73 2.1 NE 20 22 11 12 1011.4 1011.4 0.2
20/09:00pm 9.5 4.9 5.5 76 1.8 NE 19 22 10 12 1011.8 1011.8 0.2
20/08:30pm 10.3 5.9 6.5 77 1.8 NE 19 20 10 11 1012.0 1012.0 0.2
20/08:00pm 9.9 6.0 7.0 82 1.4 NE 17 20 9 11 1012.0 1012.0 0.2
20/07:30pm 11.6 7.5 7.9 78 1.8 NNE 19 22 10 12 1011.7 1011.7 0.2
20/07:00pm 11.1 7.4 8.1 82 1.5 NE 17 20 9 11 1011.9 1011.9 0.2
20/06:30pm 12.5 9.6 9.7 83 1.4 NE 15 17 8 9 1011.9 1011.9 0.2
20/06:00pm 14.3 12.0 10.3 77 2.1 ENE 13 15 7 8 1011.6 1011.6 0.2
20/05:30pm 16.6 14.9 11.1 70 3.0 NE 11 13 6 7 1011.7 1011.7 0.2
20/05:00pm 19.5 18.1 12.3 63 4.0 ENE 11 13 6 7 1011.8 1011.8 0.2
20/04:30pm 20.6 19.2 12.1 58 4.8 NNE 11 15 6 8 1012.2 1012.2 0.2
20/04:00pm 20.3 17.5 10.1 52 5.5 N 15 19 8 10 1012.5 1012.5 0.2
20/03:30pm 21.2 17.6 9.8 48 6.2 N 19 28 10 15 1012.8 1012.8 0.2
20/03:00pm 21.5 18.1 9.1 45 6.6 N 17 26 9 14 1013.6 1013.5 0.2
20/02:30pm 20.4 16.9 8.7 47 6.2 N 17 24 9 13 1014.1 1014.0 0.2
20/02:00pm 21.3 17.3 8.9 45 6.6 N 20 28 11 15 1014.4 1014.4 0.2
20/01:30pm 21.5 17.5 8.4 43 6.9 N 19 26 10 14 1014.7 1014.7 0.2
20/01:00pm 20.3 15.7 6.6 41 6.9 NNW 20 28 11 15 1015.4 1015.4 0.2
20/12:30pm 20.6 16.1 6.9 41 7.0 NNW 20 28 11 15 1016.0 1016.0 0.2
20/12:00pm 20.6 16.0 6.5 40 7.1 NNW 20 30 11 16 1016.7 1016.7 0.2
20/11:30am 19.8 15.0 7.2 44 6.4 NNW 22 32 12 17 1017.3 1017.3 0.2
20/11:00am 19.5 15.9 8.2 48 5.9 NNW 17 24 9 13 1017.8 1017.8 0.0
20/10:30am 18.2 15.5 9.0 55 4.8 N 13 19 7 10 1018.4 1018.4 0.0
20/10:00am 17.5 15.4 9.7 60 4.1 N 11 19 6 10 1018.6 1018.6 0.0
20/09:30am 15.9 13.2 8.9 63 3.6 N 13 19 7 10 1018.9 1018.9 0.0
20/09:00am 15.3 12.6 8.8 65 3.3 N 13 19 7 10 1019.1 1019.1 0.0
20/08:30am 13.5 10.5 7.9 69 2.8 NNE 13 19 7 10 1019.3 1019.3 0.0
20/08:00am 10.9 6.5 6.6 75 2.0 NE 19 26 10 14 1018.5 1018.5 0.0
20/07:30am 10.0 5.4 5.8 75 1.9 NNE 19 24 10 13 1018.6 1018.6 0.0
20/07:00am 8.8 4.0 5.5 80 1.5 NE 20 26 11 14 1018.1 1018.1 0.0
20/06:30am 7.4 2.5 4.9 84 1.1 NE 20 26 11 14 1018.7 1018.7 0.0
20/06:00am 7.3 2.3 4.8 84 1.1 NE 20 24 11 13 1018.7 1018.7 0.0
20/05:30am 7.4 2.5 5.0 85 1.1 NE 20 24 11 13 1018.7 1018.7 0.0
20/05:00am 6.9 2.5 4.7 86 1.0 NE 17 20 9 11 1018.7 1018.7 0.0
20/04:30am 6.9 2.2 5.1 88 0.8 NE 19 22 10 12 1018.6 1018.6 0.0
20/04:00am 6.4 1.6 4.6 88 0.8 NE 19 24 10 13 1018.5 1018.5 0.0
20/03:30am 6.1 1.0 4.3 88 0.8 NE 20 24 11 13 1018.6 1018.6 0.0
20/03:00am 6.0 1.5 4.2 88 0.8 NE 17 20 9 11 1019.1 1019.1 0.0
20/02:30am 6.5 1.5 4.8 89 0.7 NE 20 24 11 13 1019.2 1019.2 0.0
20/02:00am 6.1 1.6 4.4 89 0.7 NE 17 19 9 10 1019.8 1019.8 0.0
20/01:30am 6.1 1.6 4.4 89 0.7 NE 17 19 9 10 1020.1 1020.1 0.0
20/01:00am 6.4 2.0 4.9 90 0.7 NE 17 20 9 11 1020.2 1020.2 0.0
20/12:30am 6.1 1.7 4.6 90 0.6 NE 17 20 9 11 1020.6 1020.6 0.0
20/12:00am 6.1 2.0 4.6 90 0.6 NE 15 19 8 10 1020.8 1020.8 0.0
 
Date/Time
CST
Temp
°C
App
Temp
°C
Dew
Point
°C
Rel
Hum
%
Delta-T
°C
Wind Press
QNH
hPa
Press
MSL
hPa
Rain since
9am
mm
Dir  Spd
km/h
Gust
km/h
Spd
kts
Gust
kts
19/11:30pm 6.2 1.8 4.7 90 0.6 NE 17 20 9 11 1021.2 1021.2 0.0
19/11:00pm 6.2 1.8 4.8 91 0.6 NE 17 20 9 11 1021.5 1021.5 0.0
19/10:30pm 5.4 1.6 4.1 91 0.5 NE 13 15 7 8 1022.0 1022.0 0.0
19/10:00pm 5.2 1.4 3.9 91 0.5 NE 13 17 7 9 1022.3 1022.3 0.0
19/09:30pm 4.9 1.0 3.4 90 0.6 NE 13 15 7 8 1022.4 1022.4 0.0
19/09:00pm 5.2 1.0 3.7 90 0.6 NE 15 15 8 8 1022.6 1022.6 0.0
19/08:30pm 5.0 1.1 3.3 89 0.7 ENE 13 13 7 7 1022.7 1022.7 0.0
19/08:00pm 5.1 1.9 3.3 88 0.7 ENE 9 9 5 5 1022.6 1022.6 0.0
19/07:30pm 6.0 3.4 4.0 87 0.8 ESE 7 9 4 5 1022.6 1022.6 0.0
19/07:00pm 7.1 4.6 4.8 85 1.0 E 7 9 4 5 1022.5 1022.5 0.0
19/06:30pm 8.7 6.9 5.6 81 1.4 SE 4 7 2 4 1022.4 1022.4 0.0
19/06:00pm 11.1 9.4 7.6 79 1.7 S 6 7 3 4 1022.2 1022.2 0.0
19/05:30pm 12.5 10.6 7.4 71 2.5 SSW 7 9 4 5 1022.3 1022.3 0.0
19/05:00pm 14.1 12.0 6.7 61 3.6 SW 7 9 4 5 1022.4 1022.4 0.0
19/04:30pm 15.1 12.6 6.4 56 4.2 WSW 9 13 5 7 1022.3 1022.3 0.0
19/04:00pm 15.1 13.9 6.4 56 4.2 WSW 2 6 1 3 1022.5 1022.5 0.0
19/03:30pm 15.2 13.1 6.7 57 4.1 WNW 7 13 4 7 1022.5 1022.5 0.0
19/03:00pm 15.0 12.7 7.5 61 3.7 WNW 9 13 5 7 1022.7 1022.7 0.0
19/02:30pm 14.9 12.9 6.2 56 4.2 W 6 11 3 6 1022.9 1022.9 0.0
19/02:00pm 15.1 13.1 6.9 58 4.0 W 7 17 4 9 1023.3 1023.3 0.0
19/01:30pm 14.9 12.9 7.0 59 3.9 SSW 7 17 4 9 1023.5 1023.5 0.0
19/01:00pm 14.2 11.5 7.3 63 3.4 WSW 11 17 6 9 1023.7 1023.7 0.0
19/12:30pm 14.1 11.1 7.6 65 3.2 SW 13 15 7 8 1024.3 1024.3 0.0
19/12:00pm 13.6 10.9 7.2 65 3.1 SW 11 17 6 9 1024.6 1024.6 0.0
19/11:30am 13.6 11.4 7.8 68 2.9 WSW 9 11 5 6 1024.8 1024.8 0.0
19/11:00am 13.0 10.4 6.1 63 3.3 W 9 17 5 9 1024.8 1024.8 0.0
19/10:30am 12.1 9.3 6.8 70 2.5 WSW 11 15 6 8 1025.0 1025.0 0.0
19/10:00am 12.3 8.8 7.4 72 2.4 SW 15 22 8 12 1024.9 1024.9 0.0
19/09:30am 12.5 9.2 6.5 67 2.8 W 13 17 7 9 1024.8 1024.8 0.0
19/09:00am 12.5 10.6 9.0 79 1.8 WNW 9 15 5 8 1024.8 1024.8 2.0
19/08:30am 10.9 9.0 9.2 89 0.8 W 9 13 5 7 1024.5 1024.5 2.0
19/08:00am 9.7 8.0 8.5 92 0.6 NW 7 9 4 5 1024.4 1024.4 2.0
19/07:30am 8.5 6.2 7.3 92 0.6 NNW 9 13 5 7 1024.2 1024.2 2.0
19/07:00am 7.7 4.1 6.6 93 0.5 N 15 17 8 9 1023.8 1023.8 2.0
19/06:30am 7.0 4.0 5.8 92 0.5 NNW 11 13 6 7 1023.6 1023.6 2.0
19/06:00am 8.1 5.7 6.9 92 0.6 NW 9 11 5 6 1023.2 1023.2 2.0
19/05:30am 8.6 6.3 7.4 92 0.6 WSW 9 13 5 7 1022.7 1022.7 2.0
19/05:00am 8.0 4.4 6.8 92 0.6 WNW 15 22 8 12 1022.6 1022.6 1.8
19/04:30am 6.8 3.7 5.4 91 0.6 NW 11 13 6 7 1022.1 1022.1 1.6
19/04:00am 7.9 5.4 6.5 91 0.6 NW 9 11 5 6 1021.9 1021.9 1.6
19/03:30am 8.3 5.2 7.1 92 0.6 WNW 13 17 7 9 1021.7 1021.7 1.6
19/03:00am 8.0 4.1 6.9 93 0.5 WNW 17 22 9 12 1021.8 1021.8 1.6
19/02:30am 6.6 3.1 5.4 92 0.5 NNW 13 15 7 8 1021.8 1021.8 1.4
19/02:00am 6.1 2.1 4.9 92 0.5 NNW 15 17 8 9 1021.8 1021.8 1.4
19/01:30am 6.0 2.3 4.6 91 0.6 NNW 13 15 7 8 1022.0 1022.0 1.4
19/01:00am 6.5 3.7 5.0 90 0.7 NNW 9 13 5 7 1022.1 1022.1 1.4
19/12:30am 7.7 4.7 6.0 89 0.8 WNW 11 13 6 7 1022.1 1022.1 1.4
19/12:00am 8.4 4.9 7.0 91 0.7 W 15 19 8 10 1022.0 1022.0 1.4
 
Date/Time
CST
Temp
°C
App
Temp
°C
Dew
Point
°C
Rel
Hum
%
Delta-T
°C
Wind Press
QNH
hPa
Press
MSL
hPa
Rain since
9am
mm
Dir  Spd
km/h
Gust
km/h
Spd
kts
Gust
kts
18/11:30pm 6.3 3.0 4.8 90 0.7 NW 11 15 6 8 1021.7 1021.7 1.4
18/11:00pm 5.9 2.5 4.2 89 0.7 NW 11 13 6 7 1021.8 1021.8 1.4
18/10:30pm 7.1 4.3 5.3 88 0.8 NNW 9 11 5 6 1021.7 1021.7 1.4
18/10:00pm 7.7 4.7 5.8 88 0.9 WNW 11 13 6 7 1021.7 1021.7 1.4
18/09:30pm 7.1 3.8 4.6 84 1.1 WNW 11 13 6 7 1021.6 1021.6 1.4
18/09:00pm 8.3 4.7 5.1 80 1.4 W 13 15 7 8 1021.5 1021.5 1.4
18/08:30pm 10.5 6.2 5.3 70 2.4 WSW 17 26 9 14 1021.3 1021.3 1.4
18/08:00pm 10.7 6.1 5.5 70 2.4 W 19 26 10 14 1021.2 1021.2 1.4
18/07:30pm 10.4 5.7 6.2 75 2.0 W 20 26 11 14 1020.5 1020.5 1.4
18/07:00pm 9.9 5.3 5.7 75 1.9 W 19 28 10 15 1020.0 1020.0 1.4
18/06:30pm 9.6 5.8 5.6 76 1.8 W 15 19 8 10 1019.3 1019.3 1.4
18/06:00pm 11.1 5.9 5.4 68 2.6 W 22 32 12 17 1018.9 1018.9 1.4
18/05:30pm 13.4 8.6 5.6 59 3.7 SW 20 33 11 18 1018.3 1018.3 1.4
18/05:00pm 12.5 8.4 6.1 65 3.0 SW 17 24 9 13 1017.7 1017.7 1.4
18/04:30pm 12.6 6.2 5.3 61 3.4 SW 28 41 15 22 1017.1 1017.1 1.4
18/04:00pm 15.3 8.3 5.8 53 4.6 WSW 32 44 17 24 1016.4 1016.4 1.4
18/03:30pm 14.6 9.7 8.3 66 3.2 SW 24 32 13 17 1016.0 1016.0 1.4
18/03:00pm 15.6 10.8 8.8 64 3.5 SW 24 37 13 20 1015.5 1015.5 1.4
18/02:35pm 14.7 8.5 8.0 64 3.4 WSW 30 48 16 26 1014.8 1014.8 1.4

Latest Capital City Observations: Canberra | Sydney | Melbourne | Brisbane | Adelaide | Perth | Hobart | Darwin

Other Formats:

Comma delimited format used in spreadsheet applications
http://www.bom.gov.au/fwo/IDS60901/IDS60901.95671.axf

JavaScript Object Notation format (JSON) in row-major order
http://www.bom.gov.au/fwo/IDS60901/IDS60901.95671.json